AirNav   Air Wisconsin Airman Trainee
 
 1249 users online  

5MO5 St Lukes Hospital Heliport
Kansas City, Missouri, USA

GOING TO KANSAS CITY?


FAA INFORMATION EFFECTIVE 31 JANUARY 2019

Location

FAA Identifier: 5MO5
Lat/Long: 39-02-47.3700N / 094-35-21.5900W
39-02.789500N / 094-35.359833W
39.0464917 / -94.5893306
(estimated)
Elevation: 980 ft. / 299 m (estimated)
Variation: 05E (1985)
Time zone: UTC -6 (UTC -5 during Daylight Saving Time)
Zip code: 64111

Heliport Operations

Heliport use: Private use, MEDICAL USE.
Activation date: 04/1991
Control tower: no
ARTCC: KANSAS CITY CENTER
FSS: COLUMBIA FLIGHT SERVICE STATION
Attendance: CONTINUOUS
Wind indicator: lighted
Segmented circle: no
Beacon: white-green-yellow (heliport)
ACTVT ROTG BCN - 123.05; PERIMETER LGTS OPER DUSK-DAWN.

Heliport Communications

WX ASOS at MKC (5 nm N): PHONE 816-329-2843
WX ASOS at LXT (11 nm SE): 124.175 (816-347-9807)
WX ASOS at OJC (14 nm SW): PHONE 913-780-6969
WX ASOS at MCI (16 nm N): PHONE 816-329-2808
WX ASOS at IXD (19 nm SW): 135.325 (913-780-6987)

Nearby radio navigation aids

VOR radial/distance  VOR name  Freq  Var
MCIr149/15.9KANSAS CITY VORTAC113.2505E
ANXr255/21.7NAPOLEON VORTAC114.0007E

Heliport Services

Runway Information

Helipad H1

Dimensions: 52 x 50 ft. / 16 x 15 m
Surface: concrete
ROOFTOP.
Runway edge lights: PERIMETER LGTS.
Latitude: 39-02.789500N
Longitude: 094-35.359833W
Elevation: 980.0 ft.
Traffic pattern: leftleft

Helipad H2

Dimensions: 52 x 50 ft. / 16 x 15 m
Surface: concrete
Runway edge lights: PERIMETER LGTS.
Latitude: 39-02.777833N
Longitude: 094-35.360667W
Elevation: 980.0 ft.
Traffic pattern: leftleft

Heliport Ownership and Management from official FAA records

Ownership: Privately-owned
Owner: ST LUKES HOSPITAL
4401 WORNALL ROAD
KANSAS CITY, MO 64111
Phone 816-932-2000
Manager: RICCI SANCHEZ
4401 WORNALL ROAD, 4401 WORNALL ROAD
KANSAS CITY, MO 64111
Phone 816-932-2000
DAVID SCHEMENAUER 816-932-2000

Additional Remarks

OWNER DESIRES ARPT NOT BE CHARTED.
FOR CD CTC KANSAS CITY APCH AT 816-329-2710.

Instrument Procedures

There are no published instrument procedures at 5MO5.

Some nearby airports with instrument procedures:

KMKC - Charles B Wheeler Downtown Airport (5 nm N)
KLXT - Lee's Summit Municipal Airport (11 nm SE)
KOJC - Johnson County Executive Airport (14 nm SW)
KMCI - Kansas City International Airport (16 nm N)
3GV - East Kansas City Airport (18 nm E)
KIXD - New Century AirCenter Airport (19 nm SW)
 
Loc | Ops | Rwys | IFR | FBO | Links
Com | Nav | Svcs | Stats | Notes

Kansas City Aviation Department
 
Area around 5MO5 (St Lukes Hospital Heliport)
 
Road maps at: MapQuest Bing Google
 
Aerial photo
No photo
 
Sectional chart

 
Airport distance calculator
Flying to St Lukes Hospital Heliport? Find the distance to fly.

From to 5MO5

Sunrise and sunset
Times for 22-Feb-2019
 Local
(UTC-6)
 Zulu
(UTC)
Morning civil twilight06:3512:35
Sunrise07:0213:02
Sunset18:0200:02
Evening civil twilight18:2900:29

Current date and time
Zulu (UTC)  22-Feb-2019 21:53:39
Local (UTC-6)  22-Feb-2019 15:53:39
 
METAR
KMKC 
4nm N 
222054Z 07008KT 9SM OVC022 04/M03 A3011 RMK AO2 SLP201 T00391033 56030
KLXT 
11nm SE 
222053Z AUTO 10012KT 9SM OVC020 03/M01 A3011 RMK AO2 SLP206 T00281011 58028
KOJC 
14nm SW 
222141Z 10009KT 3SM BR OVC012 02/01 A3008 RMK AO2 T00170006
KMCI 
17nm NW 
222053Z 10013KT 8SM OVC019 02/M03 A3010 RMK AO2 SLP200 T00221033 58032
KIXD 
19nm SW 
222053Z 10007KT 8SM OVC017 03/M01 A3009 RMK AO2 SLP196 T00281011 56032
TAF
KMKC 
4nm N 
221732Z 2218/2318 11012KT P6SM BKN030 FM222100 11012KT P6SM -DZ OVC010 FM230000 11010KT 5SM -DZ BR OVC008 FM230300 11008KT 2SM -RA BR OVC004 FM231200 09010KT 2SM -DZ BR OVC003
KMCI 
17nm NW 
221732Z 2218/2318 11012KT P6SM BKN030 FM222100 11012KT P6SM -DZ OVC010 FM230100 11010KT 4SM -DZ BR OVC008 FM230300 11008KT 2SM -RA BR OVC004 FM231200 09010KT 2SM -DZ BR OVC003
KIXD 
19nm SW 
221732Z 2218/2318 11012KT P6SM BKN020 FM222100 11012KT P6SM -DZ OVC010 FM222300 11010KT 5SM -DZ BR OVC005 FM230300 11008KT 2SM -RA BR OVC004 FM231200 09010KT 2SM -DZ BR OVC003
NOTAMs
Click for the latest NOTAMs
NOTAMs are issued by the DoD/FAA and will open in a separate window not controlled by AirNav.

 

 
 

Would you like to see your business listed on this page?

 If your business provides an interesting product or service to pilots, flight crews, aircraft, or users of the St Lukes Hospital Heliport, you should consider listing it here.  To start the listing process, click on the button below
 
Add a business
 

Other Pages about St Lukes Hospital Heliport

Update a link
 
Copyright © AirNav, LLC. All rights reserved. Privacy Policy  Contact